sensor_id;sensor_type;location;lat;lon;timestamp;P1;durP1;ratioP1;P2;durP2;ratioP2
52456;SDS011;38369;52.840;7.082;2023-02-16T00:01:46;66.63;;;38.25;;
52456;SDS011;38369;52.840;7.082;2023-02-16T00:04:22;61.38;;;36.90;;
52456;SDS011;38369;52.840;7.082;2023-02-16T00:06:49;66.80;;;39.65;;
52456;SDS011;38369;52.840;7.082;2023-02-16T00:09:15;67.07;;;39.10;;
52456;SDS011;38369;52.840;7.082;2023-02-16T00:11:42;75.82;;;40.28;;
52456;SDS011;38369;52.840;7.082;2023-02-16T00:14:27;65.88;;;37.30;;
52456;SDS011;38369;52.840;7.082;2023-02-16T00:16:53;66.32;;;37.13;;
52456;SDS011;38369;52.840;7.082;2023-02-16T00:19:41;65.40;;;37.00;;
52456;SDS011;38369;52.840;7.082;2023-02-16T00:22:07;65.35;;;38.65;;
52456;SDS011;38369;52.840;7.082;2023-02-16T00:24:35;62.22;;;38.53;;
52456;SDS011;38369;52.840;7.082;2023-02-16T00:27:01;64.93;;;35.85;;
52456;SDS011;38369;52.840;7.082;2023-02-16T00:29:29;60.70;;;38.45;;
52456;SDS011;38369;52.840;7.082;2023-02-16T00:31:55;68.63;;;39.22;;
52456;SDS011;38369;52.840;7.082;2023-02-16T00:36:48;62.85;;;38.95;;
52456;SDS011;38369;52.840;7.082;2023-02-16T00:39:14;68.07;;;40.17;;
52456;SDS011;38369;52.840;7.082;2023-02-16T00:41:40;63.63;;;38.25;;
52456;SDS011;38369;52.840;7.082;2023-02-16T00:46:50;75.43;;;41.65;;
52456;SDS011;38369;52.840;7.082;2023-02-16T00:49:17;67.28;;;38.33;;
52456;SDS011;38369;52.840;7.082;2023-02-16T00:51:43;65.25;;;39.45;;
52456;SDS011;38369;52.840;7.082;2023-02-16T00:54:10;66.75;;;40.20;;
52456;SDS011;38369;52.840;7.082;2023-02-16T00:56:36;65.10;;;39.47;;
52456;SDS011;38369;52.840;7.082;2023-02-16T00:59:03;69.50;;;39.10;;
52456;SDS011;38369;52.840;7.082;2023-02-16T01:01:31;70.28;;;40.47;;
52456;SDS011;38369;52.840;7.082;2023-02-16T01:03:58;64.35;;;38.97;;
52456;SDS011;38369;52.840;7.082;2023-02-16T01:06:25;68.88;;;39.95;;
52456;SDS011;38369;52.840;7.082;2023-02-16T01:09:12;71.40;;;38.70;;
52456;SDS011;38369;52.840;7.082;2023-02-16T01:11:57;73.60;;;40.72;;
52456;SDS011;38369;52.840;7.082;2023-02-16T01:14:23;69.38;;;40.03;;
52456;SDS011;38369;52.840;7.082;2023-02-16T01:16:50;71.95;;;40.47;;
52456;SDS011;38369;52.840;7.082;2023-02-16T01:19:16;65.30;;;39.63;;
52456;SDS011;38369;52.840;7.082;2023-02-16T01:21:42;62.53;;;38.03;;
52456;SDS011;38369;52.840;7.082;2023-02-16T01:24:08;75.40;;;42.95;;
52456;SDS011;38369;52.840;7.082;2023-02-16T01:26:36;71.47;;;40.03;;
52456;SDS011;38369;52.840;7.082;2023-02-16T01:29:03;67.63;;;37.65;;
52456;SDS011;38369;52.840;7.082;2023-02-16T01:31:29;67.63;;;37.55;;
52456;SDS011;38369;52.840;7.082;2023-02-16T01:33:55;71.72;;;39.55;;
52456;SDS011;38369;52.840;7.082;2023-02-16T01:36:22;65.40;;;39.08;;
52456;SDS011;38369;52.840;7.082;2023-02-16T01:38:51;72.68;;;41.85;;
52456;SDS011;38369;52.840;7.082;2023-02-16T01:41:19;68.53;;;40.45;;
52456;SDS011;38369;52.840;7.082;2023-02-16T01:43:49;67.68;;;40.78;;
52456;SDS011;38369;52.840;7.082;2023-02-16T01:46:19;70.78;;;39.03;;
52456;SDS011;38369;52.840;7.082;2023-02-16T01:48:48;67.15;;;40.42;;
52456;SDS011;38369;52.840;7.082;2023-02-16T01:53:47;75.63;;;41.75;;
52456;SDS011;38369;52.840;7.082;2023-02-16T01:58:54;67.03;;;40.65;;
52456;SDS011;38369;52.840;7.082;2023-02-16T02:03:50;76.20;;;40.15;;
52456;SDS011;38369;52.840;7.082;2023-02-16T02:06:34;79.82;;;43.03;;
52456;SDS011;38369;52.840;7.082;2023-02-16T02:09:02;75.45;;;41.30;;
52456;SDS011;38369;52.840;7.082;2023-02-16T02:16:31;73.18;;;40.88;;
52456;SDS011;38369;52.840;7.082;2023-02-16T02:18:57;73.10;;;40.75;;
52456;SDS011;38369;52.840;7.082;2023-02-16T02:29:57;75.32;;;42.60;;
52456;SDS011;38369;52.840;7.082;2023-02-16T02:32:30;80.78;;;43.40;;
52456;SDS011;38369;52.840;7.082;2023-02-16T02:40:07;71.90;;;42.80;;
52456;SDS011;38369;52.840;7.082;2023-02-16T02:45:10;72.97;;;41.78;;
52456;SDS011;38369;52.840;7.082;2023-02-16T02:47:40;71.18;;;41.00;;
52456;SDS011;38369;52.840;7.082;2023-02-16T02:52:51;70.57;;;41.03;;
52456;SDS011;38369;52.840;7.082;2023-02-16T02:55:17;73.50;;;42.20;;
52456;SDS011;38369;52.840;7.082;2023-02-16T02:58:02;78.05;;;42.28;;
52456;SDS011;38369;52.840;7.082;2023-02-16T03:00:47;82.80;;;46.83;;
52456;SDS011;38369;52.840;7.082;2023-02-16T03:05:43;75.00;;;43.05;;
52456;SDS011;38369;52.840;7.082;2023-02-16T03:08:10;82.55;;;45.10;;
52456;SDS011;38369;52.840;7.082;2023-02-16T03:10:42;77.57;;;42.85;;
52456;SDS011;38369;52.840;7.082;2023-02-16T03:13:32;80.45;;;45.30;;
52456;SDS011;38369;52.840;7.082;2023-02-16T03:16:00;83.30;;;47.38;;
52456;SDS011;38369;52.840;7.082;2023-02-16T03:18:28;82.88;;;46.88;;
52456;SDS011;38369;52.840;7.082;2023-02-16T03:21:13;73.95;;;43.78;;
52456;SDS011;38369;52.840;7.082;2023-02-16T03:23:59;84.35;;;45.17;;
52456;SDS011;38369;52.840;7.082;2023-02-16T03:26:45;78.07;;;45.05;;
52456;SDS011;38369;52.840;7.082;2023-02-16T03:29:31;86.03;;;49.28;;
52456;SDS011;38369;52.840;7.082;2023-02-16T03:31:57;80.97;;;45.58;;
52456;SDS011;38369;52.840;7.082;2023-02-16T03:34:24;79.88;;;46.42;;
52456;SDS011;38369;52.840;7.082;2023-02-16T03:36:52;85.13;;;46.85;;
52456;SDS011;38369;52.840;7.082;2023-02-16T03:39:22;85.85;;;46.50;;
52456;SDS011;38369;52.840;7.082;2023-02-16T03:41:49;80.68;;;44.72;;
52456;SDS011;38369;52.840;7.082;2023-02-16T03:44:16;92.28;;;47.03;;
52456;SDS011;38369;52.840;7.082;2023-02-16T03:46:43;79.18;;;46.53;;
52456;SDS011;38369;52.840;7.082;2023-02-16T03:49:09;83.53;;;48.00;;
52456;SDS011;38369;52.840;7.082;2023-02-16T03:51:35;84.78;;;48.38;;
52456;SDS011;38369;52.840;7.082;2023-02-16T03:54:01;88.70;;;50.08;;
52456;SDS011;38369;52.840;7.082;2023-02-16T03:56:27;83.18;;;48.75;;
52456;SDS011;38369;52.840;7.082;2023-02-16T03:58:53;85.50;;;48.55;;
52456;SDS011;38369;52.840;7.082;2023-02-16T04:01:19;85.60;;;48.63;;
52456;SDS011;38369;52.840;7.082;2023-02-16T04:03:45;88.43;;;49.63;;
52456;SDS011;38369;52.840;7.082;2023-02-16T04:06:12;87.72;;;49.58;;
52456;SDS011;38369;52.840;7.082;2023-02-16T04:08:38;78.18;;;47.83;;
52456;SDS011;38369;52.840;7.082;2023-02-16T04:11:04;89.88;;;48.85;;
52456;SDS011;38369;52.840;7.082;2023-02-16T04:13:50;85.75;;;50.67;;
52456;SDS011;38369;52.840;7.082;2023-02-16T04:16:16;85.00;;;47.75;;
52456;SDS011;38369;52.840;7.082;2023-02-16T04:18:42;87.47;;;50.63;;
52456;SDS011;38369;52.840;7.082;2023-02-16T04:21:08;86.93;;;49.38;;
52456;SDS011;38369;52.840;7.082;2023-02-16T04:23:34;87.50;;;49.65;;
52456;SDS011;38369;52.840;7.082;2023-02-16T04:26:00;88.57;;;51.50;;
52456;SDS011;38369;52.840;7.082;2023-02-16T04:28:26;80.57;;;47.47;;
52456;SDS011;38369;52.840;7.082;2023-02-16T04:30:52;87.05;;;50.72;;
52456;SDS011;38369;52.840;7.082;2023-02-16T04:33:18;85.13;;;49.85;;
52456;SDS011;38369;52.840;7.082;2023-02-16T04:35:44;81.50;;;48.65;;
52456;SDS011;38369;52.840;7.082;2023-02-16T04:38:10;81.97;;;46.97;;
52456;SDS011;38369;52.840;7.082;2023-02-16T04:40:36;81.95;;;47.47;;
52456;SDS011;38369;52.840;7.082;2023-02-16T04:43:02;80.13;;;46.20;;
52456;SDS011;38369;52.840;7.082;2023-02-16T04:45:28;87.00;;;48.95;;
52456;SDS011;38369;52.840;7.082;2023-02-16T04:47:54;81.90;;;49.78;;
52456;SDS011;38369;52.840;7.082;2023-02-16T04:50:20;89.40;;;49.13;;
52456;SDS011;38369;52.840;7.082;2023-02-16T04:52:46;84.20;;;49.38;;
52456;SDS011;38369;52.840;7.082;2023-02-16T04:55:12;78.55;;;48.47;;
52456;SDS011;38369;52.840;7.082;2023-02-16T04:57:38;90.70;;;51.47;;
52456;SDS011;38369;52.840;7.082;2023-02-16T05:00:05;81.53;;;49.17;;
52456;SDS011;38369;52.840;7.082;2023-02-16T05:02:31;85.93;;;49.38;;
52456;SDS011;38369;52.840;7.082;2023-02-16T05:04:58;82.15;;;49.25;;
52456;SDS011;38369;52.840;7.082;2023-02-16T05:07:24;82.40;;;49.67;;
52456;SDS011;38369;52.840;7.082;2023-02-16T05:09:50;85.05;;;49.85;;
52456;SDS011;38369;52.840;7.082;2023-02-16T05:12:16;88.45;;;50.83;;
52456;SDS011;38369;52.840;7.082;2023-02-16T05:15:00;86.57;;;49.30;;
52456;SDS011;38369;52.840;7.082;2023-02-16T05:17:27;84.05;;;50.30;;
52456;SDS011;38369;52.840;7.082;2023-02-16T05:19:54;78.55;;;47.83;;
52456;SDS011;38369;52.840;7.082;2023-02-16T05:22:20;85.85;;;50.13;;
52456;SDS011;38369;52.840;7.082;2023-02-16T05:24:47;83.55;;;50.33;;
52456;SDS011;38369;52.840;7.082;2023-02-16T05:27:17;84.15;;;50.00;;
52456;SDS011;38369;52.840;7.082;2023-02-16T05:32:09;81.43;;;47.95;;
52456;SDS011;38369;52.840;7.082;2023-02-16T05:34:35;89.95;;;50.97;;
52456;SDS011;38369;52.840;7.082;2023-02-16T05:37:02;85.43;;;50.67;;
52456;SDS011;38369;52.840;7.082;2023-02-16T05:39:28;79.93;;;49.75;;
52456;SDS011;38369;52.840;7.082;2023-02-16T05:41:54;80.95;;;48.95;;
52456;SDS011;38369;52.840;7.082;2023-02-16T05:44:20;82.50;;;49.65;;
52456;SDS011;38369;52.840;7.082;2023-02-16T05:46:46;85.20;;;50.15;;
52456;SDS011;38369;52.840;7.082;2023-02-16T05:49:13;82.45;;;51.00;;
52456;SDS011;38369;52.840;7.082;2023-02-16T05:51:39;87.60;;;50.03;;
52456;SDS011;38369;52.840;7.082;2023-02-16T05:54:05;86.93;;;49.75;;
52456;SDS011;38369;52.840;7.082;2023-02-16T05:56:32;79.32;;;47.80;;
52456;SDS011;38369;52.840;7.082;2023-02-16T05:58:58;82.13;;;49.10;;
52456;SDS011;38369;52.840;7.082;2023-02-16T06:01:25;77.88;;;48.78;;
52456;SDS011;38369;52.840;7.082;2023-02-16T06:03:51;86.13;;;52.53;;
52456;SDS011;38369;52.840;7.082;2023-02-16T06:06:17;84.55;;;51.33;;
52456;SDS011;38369;52.840;7.082;2023-02-16T06:08:44;77.28;;;47.15;;
52456;SDS011;38369;52.840;7.082;2023-02-16T06:11:10;77.85;;;48.03;;
52456;SDS011;38369;52.840;7.082;2023-02-16T06:13:55;79.45;;;49.80;;
52456;SDS011;38369;52.840;7.082;2023-02-16T06:16:26;74.75;;;47.65;;
52456;SDS011;38369;52.840;7.082;2023-02-16T06:18:53;85.00;;;50.13;;
52456;SDS011;38369;52.840;7.082;2023-02-16T06:21:19;82.60;;;48.67;;
52456;SDS011;38369;52.840;7.082;2023-02-16T06:23:46;82.72;;;48.97;;
52456;SDS011;38369;52.840;7.082;2023-02-16T06:26:12;79.07;;;49.05;;
52456;SDS011;38369;52.840;7.082;2023-02-16T06:28:38;73.63;;;47.03;;
52456;SDS011;38369;52.840;7.082;2023-02-16T06:31:04;85.47;;;48.85;;
52456;SDS011;38369;52.840;7.082;2023-02-16T06:33:30;74.30;;;44.97;;
52456;SDS011;38369;52.840;7.082;2023-02-16T06:35:56;80.03;;;48.10;;
52456;SDS011;38369;52.840;7.082;2023-02-16T06:38:22;81.18;;;48.50;;
52456;SDS011;38369;52.840;7.082;2023-02-16T06:40:51;75.10;;;45.85;;
52456;SDS011;38369;52.840;7.082;2023-02-16T06:43:18;75.80;;;45.92;;
52456;SDS011;38369;52.840;7.082;2023-02-16T06:45:44;79.18;;;48.92;;
52456;SDS011;38369;52.840;7.082;2023-02-16T06:48:10;78.80;;;47.53;;
52456;SDS011;38369;52.840;7.082;2023-02-16T06:50:36;75.80;;;46.63;;
52456;SDS011;38369;52.840;7.082;2023-02-16T06:53:02;82.50;;;50.08;;
52456;SDS011;38369;52.840;7.082;2023-02-16T06:55:28;79.25;;;47.78;;
52456;SDS011;38369;52.840;7.082;2023-02-16T06:57:58;75.80;;;48.38;;
52456;SDS011;38369;52.840;7.082;2023-02-16T07:00:25;78.03;;;47.97;;
52456;SDS011;38369;52.840;7.082;2023-02-16T07:02:51;78.25;;;47.28;;
52456;SDS011;38369;52.840;7.082;2023-02-16T07:05:17;77.32;;;48.60;;
52456;SDS011;38369;52.840;7.082;2023-02-16T07:07:43;81.72;;;48.28;;
52456;SDS011;38369;52.840;7.082;2023-02-16T07:10:10;77.50;;;48.38;;
52456;SDS011;38369;52.840;7.082;2023-02-16T07:12:36;82.35;;;49.20;;
52456;SDS011;38369;52.840;7.082;2023-02-16T07:15:02;78.28;;;49.47;;
52456;SDS011;38369;52.840;7.082;2023-02-16T07:17:28;71.40;;;45.50;;
52456;SDS011;38369;52.840;7.082;2023-02-16T07:19:54;74.93;;;46.10;;
52456;SDS011;38369;52.840;7.082;2023-02-16T07:22:20;81.40;;;49.00;;
52456;SDS011;38369;52.840;7.082;2023-02-16T07:24:46;76.70;;;47.65;;
52456;SDS011;38369;52.840;7.082;2023-02-16T07:27:12;73.85;;;47.35;;
52456;SDS011;38369;52.840;7.082;2023-02-16T07:29:38;74.75;;;46.78;;
52456;SDS011;38369;52.840;7.082;2023-02-16T07:32:04;75.97;;;45.92;;
52456;SDS011;38369;52.840;7.082;2023-02-16T07:34:31;80.97;;;48.15;;
52456;SDS011;38369;52.840;7.082;2023-02-16T07:36:57;74.28;;;46.28;;
52456;SDS011;38369;52.840;7.082;2023-02-16T07:39:23;74.32;;;47.85;;
52456;SDS011;38369;52.840;7.082;2023-02-16T07:41:49;81.68;;;48.00;;
52456;SDS011;38369;52.840;7.082;2023-02-16T07:44:15;76.07;;;47.03;;
52456;SDS011;38369;52.840;7.082;2023-02-16T07:46:41;75.80;;;47.03;;
52456;SDS011;38369;52.840;7.082;2023-02-16T07:49:07;78.10;;;46.88;;
52456;SDS011;38369;52.840;7.082;2023-02-16T07:51:33;73.07;;;45.97;;
52456;SDS011;38369;52.840;7.082;2023-02-16T07:53:59;77.65;;;46.60;;
52456;SDS011;38369;52.840;7.082;2023-02-16T07:56:27;75.53;;;46.85;;
52456;SDS011;38369;52.840;7.082;2023-02-16T07:58:54;81.05;;;46.47;;
52456;SDS011;38369;52.840;7.082;2023-02-16T08:01:20;75.57;;;46.90;;
52456;SDS011;38369;52.840;7.082;2023-02-16T08:03:46;75.72;;;46.85;;
52456;SDS011;38369;52.840;7.082;2023-02-16T08:06:13;74.82;;;46.25;;
52456;SDS011;38369;52.840;7.082;2023-02-16T08:08:39;80.85;;;46.72;;
52456;SDS011;38369;52.840;7.082;2023-02-16T08:11:16;75.28;;;48.38;;
52456;SDS011;38369;52.840;7.082;2023-02-16T08:13:42;81.72;;;51.17;;
52456;SDS011;38369;52.840;7.082;2023-02-16T08:16:13;74.45;;;46.95;;
52456;SDS011;38369;52.840;7.082;2023-02-16T08:18:40;78.07;;;48.80;;
52456;SDS011;38369;52.840;7.082;2023-02-16T08:21:13;80.25;;;48.05;;
52456;SDS011;38369;52.840;7.082;2023-02-16T08:23:40;81.35;;;48.95;;
52456;SDS011;38369;52.840;7.082;2023-02-16T08:26:10;75.07;;;47.72;;
52456;SDS011;38369;52.840;7.082;2023-02-16T08:28:36;76.88;;;46.33;;
52456;SDS011;38369;52.840;7.082;2023-02-16T08:31:10;81.00;;;48.65;;
52456;SDS011;38369;52.840;7.082;2023-02-16T08:33:36;76.93;;;48.17;;
52456;SDS011;38369;52.840;7.082;2023-02-16T08:36:02;78.28;;;47.70;;
52456;SDS011;38369;52.840;7.082;2023-02-16T08:38:28;83.18;;;50.17;;
52456;SDS011;38369;52.840;7.082;2023-02-16T08:40:56;75.57;;;44.78;;
52456;SDS011;38369;52.840;7.082;2023-02-16T08:43:23;77.38;;;48.78;;
52456;SDS011;38369;52.840;7.082;2023-02-16T08:45:50;76.88;;;49.63;;
52456;SDS011;38369;52.840;7.082;2023-02-16T08:48:16;81.50;;;49.80;;
52456;SDS011;38369;52.840;7.082;2023-02-16T08:50:45;83.00;;;50.78;;
52456;SDS011;38369;52.840;7.082;2023-02-16T08:53:17;81.93;;;49.88;;
52456;SDS011;38369;52.840;7.082;2023-02-16T08:55:49;85.72;;;52.53;;
52456;SDS011;38369;52.840;7.082;2023-02-16T08:58:15;79.75;;;48.28;;
52456;SDS011;38369;52.840;7.082;2023-02-16T09:00:42;75.95;;;47.35;;
52456;SDS011;38369;52.840;7.082;2023-02-16T09:03:08;75.70;;;47.30;;
52456;SDS011;38369;52.840;7.082;2023-02-16T09:05:34;77.25;;;48.70;;
52456;SDS011;38369;52.840;7.082;2023-02-16T09:08:00;76.28;;;48.67;;
52456;SDS011;38369;52.840;7.082;2023-02-16T09:10:27;75.68;;;48.38;;
52456;SDS011;38369;52.840;7.082;2023-02-16T09:12:54;81.75;;;50.63;;
52456;SDS011;38369;52.840;7.082;2023-02-16T09:15:20;80.35;;;50.55;;
52456;SDS011;38369;52.840;7.082;2023-02-16T09:17:46;85.97;;;50.85;;
52456;SDS011;38369;52.840;7.082;2023-02-16T09:20:12;88.78;;;52.83;;
52456;SDS011;38369;52.840;7.082;2023-02-16T09:22:42;92.45;;;50.90;;
52456;SDS011;38369;52.840;7.082;2023-02-16T09:25:08;87.50;;;53.33;;
52456;SDS011;38369;52.840;7.082;2023-02-16T09:27:35;82.05;;;53.85;;
52456;SDS011;38369;52.840;7.082;2023-02-16T09:30:02;79.72;;;51.47;;
52456;SDS011;38369;52.840;7.082;2023-02-16T09:32:28;87.72;;;52.75;;
52456;SDS011;38369;52.840;7.082;2023-02-16T09:34:54;83.63;;;52.13;;
52456;SDS011;38369;52.840;7.082;2023-02-16T09:37:20;89.47;;;53.20;;
52456;SDS011;38369;52.840;7.082;2023-02-16T09:39:46;86.80;;;51.20;;
52456;SDS011;38369;52.840;7.082;2023-02-16T09:49:43;86.70;;;51.08;;
52456;SDS011;38369;52.840;7.082;2023-02-16T09:54:52;83.85;;;51.85;;
52456;SDS011;38369;52.840;7.082;2023-02-16T09:58:01;88.40;;;52.38;;
52456;SDS011;38369;52.840;7.082;2023-02-16T10:02:39;82.88;;;49.97;;
52456;SDS011;38369;52.840;7.082;2023-02-16T10:07:49;78.20;;;48.93;;
52456;SDS011;38369;52.840;7.082;2023-02-16T10:10:21;83.03;;;50.60;;
52456;SDS011;38369;52.840;7.082;2023-02-16T10:12:51;77.30;;;49.05;;
52456;SDS011;38369;52.840;7.082;2023-02-16T10:15:20;89.70;;;51.38;;
52456;SDS011;38369;52.840;7.082;2023-02-16T10:17:56;83.38;;;52.00;;
52456;SDS011;38369;52.840;7.082;2023-02-16T10:23:31;85.22;;;50.58;;
52456;SDS011;38369;52.840;7.082;2023-02-16T10:28:47;79.68;;;51.58;;
52456;SDS011;38369;52.840;7.082;2023-02-16T10:31:17;81.47;;;51.78;;
52456;SDS011;38369;52.840;7.082;2023-02-16T10:33:45;82.32;;;50.25;;
52456;SDS011;38369;52.840;7.082;2023-02-16T10:38:56;78.88;;;51.10;;
52456;SDS011;38369;52.840;7.082;2023-02-16T10:41:39;85.30;;;49.65;;
52456;SDS011;38369;52.840;7.082;2023-02-16T10:46:35;86.40;;;50.78;;
52456;SDS011;38369;52.840;7.082;2023-02-16T10:49:02;79.50;;;50.40;;
52456;SDS011;38369;52.840;7.082;2023-02-16T10:51:32;83.15;;;50.97;;
52456;SDS011;38369;52.840;7.082;2023-02-16T10:54:06;79.45;;;50.38;;
52456;SDS011;38369;52.840;7.082;2023-02-16T10:59:04;82.70;;;52.08;;
52456;SDS011;38369;52.840;7.082;2023-02-16T11:01:35;82.15;;;50.72;;
52456;SDS011;38369;52.840;7.082;2023-02-16T11:04:02;79.78;;;49.80;;
52456;SDS011;38369;52.840;7.082;2023-02-16T11:06:28;80.32;;;51.00;;
52456;SDS011;38369;52.840;7.082;2023-02-16T11:08:58;83.57;;;50.75;;
52456;SDS011;38369;52.840;7.082;2023-02-16T11:11:34;79.50;;;49.58;;
52456;SDS011;38369;52.840;7.082;2023-02-16T11:16:45;84.28;;;50.80;;
52456;SDS011;38369;52.840;7.082;2023-02-16T11:19:19;78.30;;;49.22;;
52456;SDS011;38369;52.840;7.082;2023-02-16T11:24:22;88.70;;;53.60;;
52456;SDS011;38369;52.840;7.082;2023-02-16T11:26:57;80.32;;;49.95;;
52456;SDS011;38369;52.840;7.082;2023-02-16T11:29:24;81.82;;;50.30;;
52456;SDS011;38369;52.840;7.082;2023-02-16T11:31:50;88.85;;;52.10;;
52456;SDS011;38369;52.840;7.082;2023-02-16T11:37:05;84.03;;;50.13;;
52456;SDS011;38369;52.840;7.082;2023-02-16T11:39:37;80.47;;;50.28;;
52456;SDS011;38369;52.840;7.082;2023-02-16T11:42:05;86.68;;;53.50;;
52456;SDS011;38369;52.840;7.082;2023-02-16T11:44:40;98.70;;;55.15;;
52456;SDS011;38369;52.840;7.082;2023-02-16T11:47:30;92.38;;;53.95;;
52456;SDS011;38369;52.840;7.082;2023-02-16T11:52:41;87.25;;;54.55;;
52456;SDS011;38369;52.840;7.082;2023-02-16T11:55:17;94.43;;;55.58;;
52456;SDS011;38369;52.840;7.082;2023-02-16T11:57:44;91.85;;;54.50;;
52456;SDS011;38369;52.840;7.082;2023-02-16T12:00:28;92.28;;;53.67;;
52456;SDS011;38369;52.840;7.082;2023-02-16T12:05:26;96.22;;;56.83;;
52456;SDS011;38369;52.840;7.082;2023-02-16T12:08:03;97.90;;;54.47;;
52456;SDS011;38369;52.840;7.082;2023-02-16T12:13:03;94.50;;;55.58;;
52456;SDS011;38369;52.840;7.082;2023-02-16T12:15:36;94.80;;;57.58;;
52456;SDS011;38369;52.840;7.082;2023-02-16T12:21:17;99.05;;;56.17;;
52456;SDS011;38369;52.840;7.082;2023-02-16T12:23:34;97.23;;;56.93;;
52456;SDS011;38369;52.840;7.082;2023-02-16T12:29:03;99.82;;;56.60;;
52456;SDS011;38369;52.840;7.082;2023-02-16T12:31:46;102.05;;;59.25;;
52456;SDS011;38369;52.840;7.082;2023-02-16T12:39:30;96.00;;;58.33;;
52456;SDS011;38369;52.840;7.082;2023-02-16T12:44:47;91.72;;;53.88;;
52456;SDS011;38369;52.840;7.082;2023-02-16T12:47:19;98.45;;;57.67;;
52456;SDS011;38369;52.840;7.082;2023-02-16T12:54:47;94.00;;;56.60;;
52456;SDS011;38369;52.840;7.082;2023-02-16T12:57:16;102.38;;;56.22;;
52456;SDS011;38369;52.840;7.082;2023-02-16T13:02:14;91.50;;;56.50;;
52456;SDS011;38369;52.840;7.082;2023-02-16T13:04:43;93.25;;;54.17;;
52456;SDS011;38369;52.840;7.082;2023-02-16T13:07:19;86.50;;;52.67;;
52456;SDS011;38369;52.840;7.082;2023-02-16T13:12:36;81.72;;;54.30;;
52456;SDS011;38369;52.840;7.082;2023-02-16T13:15:12;91.75;;;57.78;;
52456;SDS011;38369;52.840;7.082;2023-02-16T13:17:40;86.90;;;53.65;;
52456;SDS011;38369;52.840;7.082;2023-02-16T13:20:14;82.00;;;52.35;;
52456;SDS011;38369;52.840;7.082;2023-02-16T13:28:12;78.75;;;49.35;;
52456;SDS011;38369;52.840;7.082;2023-02-16T13:38:53;75.15;;;48.97;;
52456;SDS011;38369;52.840;7.082;2023-02-16T13:41:39;69.25;;;43.33;;
52456;SDS011;38369;52.840;7.082;2023-02-16T13:44:08;67.60;;;43.70;;
52456;SDS011;38369;52.840;7.082;2023-02-16T13:46:39;75.63;;;46.85;;
52456;SDS011;38369;52.840;7.082;2023-02-16T13:49:06;71.28;;;45.17;;
52456;SDS011;38369;52.840;7.082;2023-02-16T13:51:39;70.75;;;45.63;;
52456;SDS011;38369;52.840;7.082;2023-02-16T13:54:12;76.00;;;49.25;;
52456;SDS011;38369;52.840;7.082;2023-02-16T13:56:47;53.42;;;34.42;;
52456;SDS011;38369;52.840;7.082;2023-02-16T14:01:46;70.05;;;45.83;;
52456;SDS011;38369;52.840;7.082;2023-02-16T14:04:58;74.28;;;47.08;;
52456;SDS011;38369;52.840;7.082;2023-02-16T14:16:54;71.38;;;46.80;;
52456;SDS011;38369;52.840;7.082;2023-02-16T14:19:25;64.28;;;42.03;;
52456;SDS011;38369;52.840;7.082;2023-02-16T14:24:30;64.53;;;41.42;;
52456;SDS011;38369;52.840;7.082;2023-02-16T14:29:25;62.53;;;40.13;;
52456;SDS011;38369;52.840;7.082;2023-02-16T14:32:18;63.22;;;40.38;;
52456;SDS011;38369;52.840;7.082;2023-02-16T14:34:39;65.70;;;40.85;;
52456;SDS011;38369;52.840;7.082;2023-02-16T14:37:08;67.57;;;44.45;;
52456;SDS011;38369;52.840;7.082;2023-02-16T14:39:35;74.68;;;46.72;;
52456;SDS011;38369;52.840;7.082;2023-02-16T14:42:06;70.30;;;43.05;;
52456;SDS011;38369;52.840;7.082;2023-02-16T14:52:30;67.25;;;41.17;;
52456;SDS011;38369;52.840;7.082;2023-02-16T14:57:13;64.07;;;42.05;;
52456;SDS011;38369;52.840;7.082;2023-02-16T14:59:48;68.15;;;43.92;;
52456;SDS011;38369;52.840;7.082;2023-02-16T15:02:26;69.40;;;44.03;;
52456;SDS011;38369;52.840;7.082;2023-02-16T15:04:52;67.63;;;41.63;;
52456;SDS011;38369;52.840;7.082;2023-02-16T15:07:18;66.72;;;43.05;;
52456;SDS011;38369;52.840;7.082;2023-02-16T15:09:45;71.80;;;41.50;;
52456;SDS011;38369;52.840;7.082;2023-02-16T15:12:12;65.38;;;40.70;;
52456;SDS011;38369;52.840;7.082;2023-02-16T15:17:22;65.63;;;42.28;;
52456;SDS011;38369;52.840;7.082;2023-02-16T15:19:51;66.78;;;42.60;;
52456;SDS011;38369;52.840;7.082;2023-02-16T15:22:19;70.25;;;43.45;;
52456;SDS011;38369;52.840;7.082;2023-02-16T15:24:59;69.63;;;43.22;;
52456;SDS011;38369;52.840;7.082;2023-02-16T15:27:26;69.13;;;43.03;;
52456;SDS011;38369;52.840;7.082;2023-02-16T15:32:31;76.90;;;45.50;;
52456;SDS011;38369;52.840;7.082;2023-02-16T15:34:58;66.85;;;44.13;;
52456;SDS011;38369;52.840;7.082;2023-02-16T15:37:28;69.35;;;44.65;;
52456;SDS011;38369;52.840;7.082;2023-02-16T15:40:23;72.70;;;43.83;;
52456;SDS011;38369;52.840;7.082;2023-02-16T15:42:44;71.13;;;45.58;;
52456;SDS011;38369;52.840;7.082;2023-02-16T15:45:24;63.03;;;42.15;;
52456;SDS011;38369;52.840;7.082;2023-02-16T15:47:50;69.85;;;43.65;;
52456;SDS011;38369;52.840;7.082;2023-02-16T15:50:21;65.82;;;44.33;;
52456;SDS011;38369;52.840;7.082;2023-02-16T15:52:50;66.20;;;42.28;;
52456;SDS011;38369;52.840;7.082;2023-02-16T15:55:18;67.72;;;43.97;;
52456;SDS011;38369;52.840;7.082;2023-02-16T15:57:45;71.43;;;45.53;;
52456;SDS011;38369;52.840;7.082;2023-02-16T16:00:14;68.15;;;43.70;;
52456;SDS011;38369;52.840;7.082;2023-02-16T16:02:44;70.80;;;44.50;;
52456;SDS011;38369;52.840;7.082;2023-02-16T16:07:39;71.40;;;43.90;;
52456;SDS011;38369;52.840;7.082;2023-02-16T16:10:14;71.85;;;45.20;;
52456;SDS011;38369;52.840;7.082;2023-02-16T16:12:42;73.10;;;46.42;;
52456;SDS011;38369;52.840;7.082;2023-02-16T16:15:09;73.03;;;44.65;;
52456;SDS011;38369;52.840;7.082;2023-02-16T16:17:39;74.15;;;45.88;;
52456;SDS011;38369;52.840;7.082;2023-02-16T16:23:04;67.18;;;46.00;;
52456;SDS011;38369;52.840;7.082;2023-02-16T16:28:09;74.33;;;45.20;;
52456;SDS011;38369;52.840;7.082;2023-02-16T16:30:36;73.93;;;46.80;;
52456;SDS011;38369;52.840;7.082;2023-02-16T16:33:10;74.32;;;47.67;;
52456;SDS011;38369;52.840;7.082;2023-02-16T16:36:10;77.85;;;48.85;;
52456;SDS011;38369;52.840;7.082;2023-02-16T16:38:32;75.78;;;47.05;;
52456;SDS011;38369;52.840;7.082;2023-02-16T16:41:01;79.55;;;48.00;;
52456;SDS011;38369;52.840;7.082;2023-02-16T16:43:34;82.15;;;47.75;;
52456;SDS011;38369;52.840;7.082;2023-02-16T16:48:36;75.85;;;46.30;;
52456;SDS011;38369;52.840;7.082;2023-02-16T16:51:08;69.80;;;45.70;;
52456;SDS011;38369;52.840;7.082;2023-02-16T16:54:09;70.45;;;43.65;;
52456;SDS011;38369;52.840;7.082;2023-02-16T16:56:28;72.30;;;45.80;;
52456;SDS011;38369;52.840;7.082;2023-02-16T16:58:55;73.20;;;46.28;;
52456;SDS011;38369;52.840;7.082;2023-02-16T17:01:23;77.22;;;46.58;;
52456;SDS011;38369;52.840;7.082;2023-02-16T17:03:49;75.13;;;45.65;;
52456;SDS011;38369;52.840;7.082;2023-02-16T17:06:15;72.18;;;45.17;;
52456;SDS011;38369;52.840;7.082;2023-02-16T17:08:42;77.50;;;47.92;;
52456;SDS011;38369;52.840;7.082;2023-02-16T17:11:11;74.75;;;45.92;;
52456;SDS011;38369;52.840;7.082;2023-02-16T17:13:38;78.60;;;48.45;;
52456;SDS011;38369;52.840;7.082;2023-02-16T17:16:10;76.55;;;47.42;;
52456;SDS011;38369;52.840;7.082;2023-02-16T17:18:38;70.72;;;44.30;;
52456;SDS011;38369;52.840;7.082;2023-02-16T17:21:04;72.57;;;43.40;;